createdAt,value
2023-04-07T00:01:46.479Z,100763.50
2023-04-07T00:04:13.941Z,100756.59
2023-04-07T00:06:41.192Z,100767.50
2023-04-07T00:09:08.240Z,100756.50
2023-04-07T00:11:35.419Z,100755.25
2023-04-07T00:14:02.590Z,100756.00
2023-04-07T00:16:29.740Z,100750.09
2023-04-07T00:18:56.973Z,100762.84
2023-04-07T00:21:24.094Z,100767.97
2023-04-07T00:23:52.806Z,100754.69
2023-04-07T00:26:20.060Z,100754.31
2023-04-07T00:28:47.495Z,100756.38
2023-04-07T00:31:14.748Z,100761.59
2023-04-07T00:33:41.889Z,100749.44
2023-04-07T00:36:09.180Z,100756.91
2023-04-07T00:38:36.361Z,100743.16
2023-04-07T00:41:03.478Z,100757.06
2023-04-07T00:43:30.792Z,100766.16
2023-04-07T00:45:57.950Z,100769.56
2023-04-07T00:48:25.092Z,100756.34
2023-04-07T00:50:52.254Z,100766.66
2023-04-07T00:53:20.396Z,100752.94
2023-04-07T00:55:47.665Z,100758.31
2023-04-07T00:58:14.875Z,100759.81
2023-04-07T01:00:50.840Z,100759.34
2023-04-07T01:03:28.645Z,100758.91
2023-04-07T01:06:01.172Z,100760.84
2023-04-07T01:08:41.613Z,100748.88
2023-04-07T01:11:17.753Z,100770.00
2023-04-07T01:13:52.983Z,100772.09
2023-04-07T01:16:48.753Z,100767.03
2023-04-07T01:19:36.494Z,100766.41
2023-04-07T01:22:11.824Z,100769.88
2023-04-07T01:25:02.580Z,100771.69
2023-04-07T01:27:43.943Z,100771.69
2023-04-07T01:30:13.537Z,100781.41
2023-04-07T01:32:44.126Z,100770.25
2023-04-07T01:35:14.081Z,100771.50
2023-04-07T01:37:41.773Z,100780.00
2023-04-07T01:40:10.411Z,100779.91
2023-04-07T01:42:39.344Z,100778.47
2023-04-07T01:45:08.424Z,100779.63
2023-04-07T01:47:39.529Z,100770.47
2023-04-07T01:50:11.192Z,100763.94
2023-04-07T01:52:40.209Z,100779.06
2023-04-07T01:55:07.670Z,100775.00
2023-04-07T01:57:39.935Z,100774.81
2023-04-07T02:00:14.039Z,100776.72
2023-04-07T02:02:53.159Z,100766.75
2023-04-07T02:05:22.944Z,100783.59
2023-04-07T02:07:55.864Z,100774.06
2023-04-07T02:10:25.904Z,100788.97
2023-04-07T02:12:57.389Z,100770.69
2023-04-07T02:15:26.030Z,100782.91
2023-04-07T02:17:56.628Z,100781.16
2023-04-07T02:20:24.515Z,100774.81
2023-04-07T02:22:51.825Z,100785.63
2023-04-07T02:25:26.899Z,100779.66
2023-04-07T02:27:56.510Z,100775.09
2023-04-07T02:30:24.313Z,100778.91
2023-04-07T02:32:52.599Z,100783.47
2023-04-07T02:35:21.297Z,100782.66
2023-04-07T02:37:48.693Z,100780.19
2023-04-07T02:40:16.470Z,100779.84
2023-04-07T02:42:44.161Z,100780.94
2023-04-07T02:45:11.842Z,100783.66
2023-04-07T02:47:39.845Z,100785.06
2023-04-07T02:50:07.834Z,100787.47
2023-04-07T02:52:36.381Z,100781.72
2023-04-07T02:55:10.019Z,100791.94
2023-04-07T02:57:37.194Z,100793.63
2023-04-07T03:00:09.609Z,100793.94
2023-04-07T03:02:54.567Z,100788.41
2023-04-07T03:05:21.932Z,100791.66
2023-04-07T03:07:49.246Z,100797.16
2023-04-07T03:10:16.630Z,100804.22
2023-04-07T03:12:44.289Z,100797.69
2023-04-07T03:15:11.582Z,100799.84
2023-04-07T03:17:41.784Z,100797.34
2023-04-07T03:20:09.237Z,100792.31
2023-04-07T03:22:38.060Z,100799.66
2023-04-07T03:25:09.186Z,100793.56
2023-04-07T03:27:36.331Z,100797.84
2023-04-07T03:30:05.144Z,100808.28
2023-04-07T03:32:32.413Z,100804.00
2023-04-07T03:34:59.555Z,100803.81
2023-04-07T03:37:26.626Z,100811.34
2023-04-07T03:39:55.431Z,100811.06
2023-04-07T03:42:34.042Z,100814.06
2023-04-07T03:45:04.554Z,100799.31
2023-04-07T03:47:34.005Z,100814.38
2023-04-07T03:50:03.650Z,100816.59
2023-04-07T03:52:35.267Z,100817.28
2023-04-07T03:55:11.891Z,100823.47
2023-04-07T03:57:41.045Z,100825.69
2023-04-07T04:00:09.252Z,100831.09
2023-04-07T04:02:43.888Z,100809.97
2023-04-07T04:05:15.867Z,100817.28
2023-04-07T04:07:44.767Z,100805.75
2023-04-07T04:10:12.176Z,100816.06
2023-04-07T04:12:43.733Z,100812.38
2023-04-07T04:15:13.815Z,100817.06
2023-04-07T04:17:41.732Z,100812.53
2023-04-07T04:20:10.459Z,100819.53
2023-04-07T04:22:43.443Z,100824.31
2023-04-07T04:25:11.843Z,100823.41
2023-04-07T04:27:41.192Z,100826.91
2023-04-07T04:30:16.768Z,100824.38
2023-04-07T04:32:51.678Z,100832.75
2023-04-07T04:35:24.824Z,100825.19
2023-04-07T04:38:10.691Z,100815.66
2023-04-07T04:40:42.561Z,100839.09
2023-04-07T04:43:09.915Z,100841.78
2023-04-07T04:45:39.793Z,100834.38
2023-04-07T04:48:09.685Z,100847.81
2023-04-07T04:50:36.885Z,100848.78
2023-04-07T04:53:09.055Z,100845.19
2023-04-07T04:55:47.184Z,100845.38
2023-04-07T04:58:19.446Z,100852.00
2023-04-07T05:00:49.931Z,100849.88
2023-04-07T05:03:17.850Z,100853.28
2023-04-07T05:05:49.780Z,100854.97
2023-04-07T05:08:20.832Z,100846.94
2023-04-07T05:10:48.080Z,100848.28
2023-04-07T05:13:19.642Z,100858.53
2023-04-07T05:15:46.848Z,100852.06
2023-04-07T05:18:14.702Z,100845.19
2023-04-07T05:20:41.980Z,100855.84
2023-04-07T05:23:10.164Z,100866.81
2023-04-07T05:25:37.835Z,100849.75
2023-04-07T05:28:06.897Z,100840.84
2023-04-07T05:30:34.665Z,100845.97
2023-04-07T05:33:02.141Z,100857.34
2023-04-07T05:35:58.420Z,100865.25
2023-04-07T05:38:25.979Z,100859.41
2023-04-07T05:40:58.422Z,100870.19
2023-04-07T05:43:33.283Z,100867.41
2023-04-07T05:46:00.730Z,100860.19
2023-04-07T05:48:28.329Z,100874.22
2023-04-07T05:50:56.163Z,100870.13
2023-04-07T05:53:23.295Z,100862.41
2023-04-07T05:55:50.446Z,100859.72
2023-04-07T05:58:40.242Z,100867.09
2023-04-07T06:01:08.700Z,100860.38
2023-04-07T06:03:35.926Z,100863.50
2023-04-07T06:06:29.320Z,100870.22
2023-04-07T06:08:56.432Z,100866.34
2023-04-07T06:11:27.229Z,100854.75
2023-04-07T06:13:54.465Z,100858.34
2023-04-07T06:16:21.603Z,100867.25
2023-04-07T06:18:48.803Z,100871.28
2023-04-07T06:21:15.921Z,100871.88
2023-04-07T06:23:43.015Z,100869.56
2023-04-07T06:26:13.588Z,100861.34
2023-04-07T06:28:40.834Z,100865.19
2023-04-07T06:31:09.122Z,100864.81
2023-04-07T06:33:37.331Z,100865.28
2023-04-07T06:36:04.747Z,100874.41
2023-04-07T06:38:31.932Z,100866.09
2023-04-07T06:40:59.425Z,100877.84
2023-04-07T06:43:26.481Z,100877.13
2023-04-07T06:46:01.893Z,100873.63
2023-04-07T06:48:29.119Z,100879.28
2023-04-07T06:50:56.298Z,100879.75
2023-04-07T06:53:23.383Z,100877.81
2023-04-07T06:55:50.541Z,100880.69
2023-04-07T06:58:17.641Z,100877.13
2023-04-07T07:00:44.722Z,100876.41
2023-04-07T07:03:11.974Z,100881.41
2023-04-07T07:05:39.127Z,100879.97
2023-04-07T07:08:06.181Z,100874.50
2023-04-07T07:10:33.295Z,100875.16
2023-04-07T07:13:00.396Z,100878.97
2023-04-07T07:15:27.560Z,100880.56
2023-04-07T07:17:54.703Z,100869.91
2023-04-07T07:20:23.637Z,100871.97
2023-04-07T07:22:51.109Z,100877.22
2023-04-07T07:25:18.293Z,100869.41
2023-04-07T07:27:45.982Z,100870.09
2023-04-07T07:30:13.326Z,100876.69
2023-04-07T07:32:40.690Z,100874.94
2023-04-07T07:35:08.049Z,100871.59
2023-04-07T07:37:35.886Z,100869.38
2023-04-07T07:40:03.127Z,100862.72
2023-04-07T07:42:31.642Z,100859.13
2023-04-07T07:44:59.194Z,100865.63
2023-04-07T07:47:26.809Z,100868.75
2023-04-07T07:49:54.087Z,100862.97
2023-04-07T07:52:21.316Z,100874.69
2023-04-07T07:54:49.266Z,100864.00
2023-04-07T07:57:16.472Z,100865.59
2023-04-07T07:59:43.805Z,100852.97
2023-04-07T08:02:11.134Z,100867.72
2023-04-07T08:04:38.426Z,100860.47
2023-04-07T08:07:05.598Z,100842.44
2023-04-07T08:09:32.738Z,100858.88
2023-04-07T08:11:59.861Z,100827.53
2023-04-07T08:14:27.073Z,100860.78
2023-04-07T08:16:54.179Z,100859.25
2023-04-07T08:19:21.369Z,100845.53
2023-04-07T08:21:48.425Z,100847.94
2023-04-07T08:24:15.719Z,100826.16
2023-04-07T08:27:01.649Z,100852.69
2023-04-07T08:29:30.026Z,100821.97
2023-04-07T08:31:58.346Z,100845.84
2023-04-07T08:34:25.550Z,100852.03
2023-04-07T08:36:52.639Z,100837.44
2023-04-07T08:39:19.747Z,100836.66
2023-04-07T08:41:48.874Z,100843.00
2023-04-07T08:44:17.121Z,100834.75
2023-04-07T08:46:47.114Z,100849.38
2023-04-07T08:49:18.111Z,100834.63
2023-04-07T08:51:47.704Z,100837.13
2023-04-07T08:54:16.780Z,100842.25
2023-04-07T08:56:43.859Z,100839.22
2023-04-07T08:59:13.817Z,100845.59
2023-04-07T09:01:41.751Z,100849.22
2023-04-07T09:04:10.606Z,100855.88
2023-04-07T09:06:38.542Z,100852.63
2023-04-07T09:09:06.423Z,100854.47
2023-04-07T09:11:38.701Z,100849.84
2023-04-07T09:14:05.854Z,100838.03
2023-04-07T09:16:33.069Z,100848.34
2023-04-07T09:19:00.450Z,100849.22
2023-04-07T09:21:46.830Z,100847.25
2023-04-07T09:24:28.430Z,100841.97
2023-04-07T09:27:17.226Z,100850.38
2023-04-07T09:29:47.522Z,100838.03
2023-04-07T09:32:37.311Z,100846.97
2023-04-07T09:35:04.594Z,100842.50
2023-04-07T09:37:31.736Z,100852.53
2023-04-07T09:39:59.126Z,100843.50
2023-04-07T09:42:26.832Z,100844.19
2023-04-07T09:44:54.038Z,100849.16
2023-04-07T09:47:29.154Z,100847.50
2023-04-07T09:49:57.151Z,100837.00
2023-04-07T09:52:46.650Z,100836.72
2023-04-07T09:55:14.735Z,100839.34
2023-04-07T09:57:42.338Z,100849.22
2023-04-07T10:00:10.559Z,100834.78
2023-04-07T10:02:40.680Z,100840.44
2023-04-07T10:05:08.536Z,100841.88
2023-04-07T10:07:35.931Z,100838.22
2023-04-07T10:10:08.216Z,100842.56
2023-04-07T10:12:37.943Z,100828.41
2023-04-07T10:15:06.144Z,100818.81
2023-04-07T10:17:34.214Z,100838.91
2023-04-07T10:20:02.446Z,100844.50
2023-04-07T10:22:31.856Z,100827.78
2023-04-07T10:25:05.741Z,100807.03
2023-04-07T10:27:37.492Z,100834.78
2023-04-07T10:30:12.199Z,100830.84
2023-04-07T10:32:58.041Z,100824.94
2023-04-07T10:35:26.087Z,100834.47
2023-04-07T10:38:08.553Z,100837.81
2023-04-07T10:40:36.983Z,100827.53
2023-04-07T10:43:05.235Z,100831.84
2023-04-07T10:45:57.972Z,100836.44
2023-04-07T10:48:26.047Z,100845.88
2023-04-07T10:51:05.508Z,100833.91
2023-04-07T10:53:32.726Z,100846.91
2023-04-07T10:56:00.168Z,100837.38
2023-04-07T10:58:31.666Z,100834.47
2023-04-07T11:01:01.772Z,100839.09
2023-04-07T11:03:34.998Z,100834.47
2023-04-07T11:06:13.114Z,100830.59
2023-04-07T11:08:42.862Z,100831.69
2023-04-07T11:11:12.678Z,100831.72
2023-04-07T11:13:49.854Z,100831.63
2023-04-07T11:16:34.587Z,100830.22
2023-04-07T11:19:01.794Z,100828.78
2023-04-07T11:21:29.011Z,100828.94
2023-04-07T11:23:56.134Z,100822.63
2023-04-07T11:26:23.789Z,100828.63
2023-04-07T11:28:53.160Z,100824.16
2023-04-07T11:31:25.687Z,100817.75
2023-04-07T11:33:55.377Z,100827.75
2023-04-07T11:36:34.971Z,100820.13
2023-04-07T11:39:03.764Z,100807.84
2023-04-07T11:41:33.672Z,100818.13
2023-04-07T11:44:10.231Z,100820.59
2023-04-07T11:46:38.391Z,100822.91
2023-04-07T11:49:10.948Z,100822.25
2023-04-07T11:51:38.273Z,100810.78
2023-04-07T11:54:05.754Z,100811.38
2023-04-07T11:56:46.261Z,100814.06
2023-04-07T11:59:24.121Z,100804.19
2023-04-07T12:01:55.262Z,100816.69
2023-04-07T12:04:24.609Z,100794.00
2023-04-07T12:06:51.808Z,100811.44
2023-04-07T12:09:35.999Z,100801.63
2023-04-07T12:12:08.383Z,100797.22
2023-04-07T12:14:36.679Z,100815.03
2023-04-07T12:17:04.381Z,100787.81
2023-04-07T12:19:39.756Z,100793.50
2023-04-07T12:22:07.562Z,100810.88
2023-04-07T12:24:34.702Z,100811.56
2023-04-07T12:27:02.611Z,100816.78
2023-04-07T12:29:30.160Z,100811.56
2023-04-07T12:31:57.672Z,100808.28
2023-04-07T12:34:24.805Z,100815.47
2023-04-07T12:36:51.919Z,100812.75
2023-04-07T12:39:19.407Z,100810.50
2023-04-07T12:41:47.885Z,100812.28
2023-04-07T12:44:16.269Z,100820.63
2023-04-07T12:46:43.401Z,100799.91
2023-04-07T12:49:10.589Z,100818.53
2023-04-07T12:51:40.091Z,100810.75
2023-04-07T12:54:07.730Z,100806.94
2023-04-07T12:56:34.835Z,100800.25
2023-04-07T12:59:02.259Z,100807.78
2023-04-07T13:01:29.418Z,100804.81
2023-04-07T13:03:57.144Z,100790.97
2023-04-07T13:06:24.650Z,100790.53
2023-04-07T13:08:52.017Z,100811.94
2023-04-07T13:11:19.225Z,100804.41
2023-04-07T13:13:46.401Z,100803.31
2023-04-07T13:16:13.670Z,100805.47
2023-04-07T13:18:40.713Z,100799.34
2023-04-07T13:21:33.815Z,100814.78
2023-04-07T13:23:55.108Z,100801.34
2023-04-07T13:26:25.002Z,100819.41
2023-04-07T13:28:52.137Z,100815.00
2023-04-07T13:31:19.426Z,100808.34
2023-04-07T13:33:47.131Z,100797.09
2023-04-07T13:36:14.347Z,100811.25
2023-04-07T13:38:42.663Z,100807.25
2023-04-07T13:41:09.813Z,100800.50
2023-04-07T13:43:36.924Z,100799.47
2023-04-07T13:46:06.250Z,100804.88
2023-04-07T13:48:36.885Z,100801.91
2023-04-07T13:51:05.076Z,100797.41
2023-04-07T13:53:32.240Z,100806.44
2023-04-07T13:55:59.347Z,100807.53
2023-04-07T13:58:26.447Z,100799.44
2023-04-07T14:00:53.534Z,100808.03
2023-04-07T14:03:21.019Z,100803.50
2023-04-07T14:05:48.823Z,100800.03
2023-04-07T14:08:16.039Z,100797.16
2023-04-07T14:10:43.480Z,100805.28
2023-04-07T14:13:11.299Z,100815.13
2023-04-07T14:15:38.433Z,100791.94
2023-04-07T14:18:06.563Z,100807.59
2023-04-07T14:20:33.931Z,100795.41
2023-04-07T14:23:01.729Z,100814.00
2023-04-07T14:25:28.946Z,100804.97
2023-04-07T14:27:56.147Z,100808.25
2023-04-07T14:30:23.338Z,100808.25
2023-04-07T14:32:50.804Z,100816.38
2023-04-07T14:35:17.919Z,100814.19
2023-04-07T14:37:45.011Z,100801.41
2023-04-07T14:40:12.506Z,100800.81
2023-04-07T14:42:40.245Z,100808.25
2023-04-07T14:45:08.364Z,100805.28
2023-04-07T14:47:35.657Z,100805.88
2023-04-07T14:50:02.831Z,100811.13
2023-04-07T14:52:30.375Z,100794.19
2023-04-07T14:54:59.649Z,100803.38
2023-04-07T14:57:27.599Z,100808.66
2023-04-07T14:59:54.746Z,100806.00
2023-04-07T15:02:22.191Z,100796.41
2023-04-07T15:04:49.431Z,100781.41
2023-04-07T15:07:16.741Z,100809.47
2023-04-07T15:09:43.819Z,100803.38
2023-04-07T15:12:10.942Z,100805.31
2023-04-07T15:14:38.051Z,100797.81
2023-04-07T15:17:05.182Z,100809.75
2023-04-07T15:19:32.338Z,100808.91
2023-04-07T15:21:59.447Z,100811.28
2023-04-07T15:24:26.568Z,100812.81
2023-04-07T15:26:53.624Z,100818.09
2023-04-07T15:29:20.819Z,100800.44
2023-04-07T15:31:48.070Z,100810.16
2023-04-07T15:34:15.435Z,100813.38
2023-04-07T15:36:42.648Z,100818.66
2023-04-07T15:39:09.735Z,100814.19
2023-04-07T15:41:37.032Z,100818.09
2023-04-07T15:44:04.514Z,100809.47
2023-04-07T15:46:34.631Z,100823.78
2023-04-07T15:49:01.922Z,100835.47
2023-04-07T15:51:29.721Z,100833.06
2023-04-07T15:53:56.823Z,100824.59
2023-04-07T15:56:24.909Z,100835.81
2023-04-07T15:58:52.507Z,100833.31
2023-04-07T16:01:20.104Z,100846.84
2023-04-07T16:03:47.910Z,100850.31
2023-04-07T16:06:15.543Z,100848.53
2023-04-07T16:08:42.801Z,100853.09
2023-04-07T16:11:09.949Z,100852.38
2023-04-07T16:13:37.362Z,100855.84
2023-04-07T16:16:04.589Z,100867.50
2023-04-07T16:18:31.745Z,100870.81
2023-04-07T16:20:58.913Z,100867.34
2023-04-07T16:23:26.056Z,100868.63
2023-04-07T16:25:53.145Z,100872.88
2023-04-07T16:28:20.300Z,100876.34
2023-04-07T16:30:47.419Z,100878.00
2023-04-07T16:33:14.519Z,100881.09
2023-04-07T16:35:41.669Z,100877.03
2023-04-07T16:38:08.853Z,100872.38
2023-04-07T16:40:36.016Z,100877.34
2023-04-07T16:43:03.206Z,100874.22
2023-04-07T16:45:30.313Z,100891.72
2023-04-07T16:47:57.488Z,100883.44
2023-04-07T16:50:24.670Z,100888.84
2023-04-07T16:52:51.895Z,100893.16
2023-04-07T16:55:19.148Z,100896.56
2023-04-07T16:57:46.419Z,100902.03
2023-04-07T17:00:13.741Z,100905.91
2023-04-07T17:02:41.177Z,100900.13
2023-04-07T17:05:08.849Z,100895.84
2023-04-07T17:07:36.361Z,100904.59
2023-04-07T17:10:04.137Z,100909.63
2023-04-07T17:12:31.231Z,100904.75
2023-04-07T17:14:58.345Z,100917.66
2023-04-07T17:17:25.825Z,100902.81
2023-04-07T17:19:53.426Z,100916.38
2023-04-07T17:22:21.411Z,100915.38
2023-04-07T17:24:48.538Z,100925.88
2023-04-07T17:27:15.686Z,100923.47
2023-04-07T17:29:42.837Z,100926.16
2023-04-07T17:32:10.255Z,100923.16
2023-04-07T17:34:37.422Z,100925.19
2023-04-07T17:37:04.596Z,100925.59
2023-04-07T17:39:31.742Z,100930.25
2023-04-07T17:41:58.944Z,100926.16
2023-04-07T17:44:26.277Z,100944.47
2023-04-07T17:46:54.176Z,100940.59
2023-04-07T17:49:21.507Z,100944.88
2023-04-07T17:51:48.586Z,100954.09
2023-04-07T17:54:16.258Z,100948.72
2023-04-07T17:56:43.527Z,100956.59
2023-04-07T17:59:10.840Z,100936.63
2023-04-07T18:01:38.092Z,100950.59
2023-04-07T18:04:06.642Z,100957.44
2023-04-07T18:06:35.051Z,100956.25
2023-04-07T18:09:03.262Z,100959.09
2023-04-07T18:11:30.348Z,100949.44
2023-04-07T18:13:57.554Z,100952.41
2023-04-07T18:16:24.855Z,100953.38
2023-04-07T18:18:52.694Z,100953.63
2023-04-07T18:21:19.897Z,100960.50
2023-04-07T18:23:47.131Z,100962.34
2023-04-07T18:26:14.887Z,100962.09
2023-04-07T18:28:42.050Z,100965.19
2023-04-07T18:31:09.960Z,100961.50
2023-04-07T18:33:37.290Z,100961.63
2023-04-07T18:36:07.474Z,100965.66
2023-04-07T18:38:36.130Z,100972.75
2023-04-07T18:41:03.894Z,100964.09
2023-04-07T18:43:31.473Z,100972.50
2023-04-07T18:45:58.950Z,100972.84
2023-04-07T18:48:26.543Z,100973.34
2023-04-07T18:50:55.063Z,100973.53
2023-04-07T18:53:23.540Z,100971.72
2023-04-07T18:55:51.131Z,100968.00
2023-04-07T18:58:19.432Z,100970.41
2023-04-07T19:00:47.784Z,100976.19
2023-04-07T19:03:15.015Z,100968.09
2023-04-07T19:05:42.664Z,100951.84
2023-04-07T19:08:10.023Z,100971.94
2023-04-07T19:10:37.252Z,100955.66
2023-04-07T19:13:04.811Z,100986.50
2023-04-07T19:15:46.195Z,100975.00
2023-04-07T19:18:13.707Z,100980.25
2023-04-07T19:20:40.953Z,100981.53
2023-04-07T19:23:08.097Z,100985.03
2023-04-07T19:25:35.407Z,100971.91
2023-04-07T19:28:03.383Z,100970.28
2023-04-07T19:30:30.550Z,100984.41
2023-04-07T19:32:57.940Z,100981.88
2023-04-07T19:35:25.674Z,100976.19
2023-04-07T19:37:53.790Z,100969.09
2023-04-07T19:40:20.909Z,100982.31
2023-04-07T19:42:48.064Z,100986.88
2023-04-07T19:45:15.239Z,100981.16
2023-04-07T19:47:43.688Z,100978.47
2023-04-07T19:50:17.727Z,100979.47
2023-04-07T19:52:45.613Z,100982.63
2023-04-07T19:55:14.332Z,100978.72
2023-04-07T19:57:41.634Z,100983.72
2023-04-07T20:00:10.451Z,100983.97
2023-04-07T20:02:49.909Z,100988.25
2023-04-07T20:05:18.359Z,100984.88
2023-04-07T20:07:46.346Z,100986.09
2023-04-07T20:10:13.483Z,100977.22
2023-04-07T20:12:40.550Z,100987.34
2023-04-07T20:15:08.271Z,100981.16
2023-04-07T20:17:37.040Z,100993.13
2023-04-07T20:20:05.695Z,100974.41
2023-04-07T20:22:36.569Z,100982.97
2023-04-07T20:25:06.485Z,100994.91
2023-04-07T20:27:33.975Z,100995.38
2023-04-07T20:30:02.122Z,100988.66
2023-04-07T20:32:30.688Z,100990.06
2023-04-07T20:34:57.851Z,100991.28
2023-04-07T20:37:26.407Z,100994.81
2023-04-07T20:39:55.694Z,100987.38
2023-04-07T20:42:22.938Z,101002.41
2023-04-07T20:44:50.028Z,100977.47
2023-04-07T20:47:17.865Z,100996.97
2023-04-07T20:49:45.152Z,100989.22
2023-04-07T20:52:12.570Z,100996.19
2023-04-07T20:54:40.429Z,100996.50
2023-04-07T20:57:07.479Z,100988.78
2023-04-07T20:59:34.540Z,100986.72
2023-04-07T21:02:01.749Z,101003.28
2023-04-07T21:04:29.213Z,101010.63
2023-04-07T21:06:56.434Z,101004.00
2023-04-07T21:09:23.540Z,101003.28
2023-04-07T21:11:50.774Z,100998.88
2023-04-07T21:14:19.264Z,101000.53
2023-04-07T21:16:46.334Z,100986.59
2023-04-07T21:19:13.431Z,100996.69
2023-04-07T21:21:41.635Z,101003.34
2023-04-07T21:24:08.806Z,100997.53
2023-04-07T21:26:36.206Z,100983.50
2023-04-07T21:29:03.356Z,101004.50
2023-04-07T21:31:30.436Z,100994.28
2023-04-07T21:33:57.664Z,100994.22
2023-04-07T21:36:24.766Z,100996.19
2023-04-07T21:38:52.448Z,100994.28
2023-04-07T21:41:19.582Z,101006.28
2023-04-07T21:43:46.922Z,101001.88
2023-04-07T21:46:14.432Z,101004.38
2023-04-07T21:48:42.281Z,101001.03
2023-04-07T21:51:09.512Z,101003.16
2023-04-07T21:53:36.810Z,101001.47
2023-04-07T21:56:04.601Z,101017.00
2023-04-07T21:58:31.710Z,101011.75
2023-04-07T22:00:58.839Z,101009.22
2023-04-07T22:03:30.087Z,101022.97
2023-04-07T22:06:01.231Z,101004.63
2023-04-07T22:08:31.351Z,101003.19
2023-04-07T22:10:58.846Z,101007.16
2023-04-07T22:13:26.069Z,101003.16
2023-04-07T22:15:53.342Z,101013.03
2023-04-07T22:18:22.175Z,101009.47
2023-04-07T22:20:49.376Z,101016.78
2023-04-07T22:23:16.473Z,101002.94
2023-04-07T22:25:43.622Z,101008.41
2023-04-07T22:28:11.065Z,101009.97
2023-04-07T22:30:38.477Z,101006.94
2023-04-07T22:33:07.105Z,101007.38
2023-04-07T22:35:34.622Z,101005.03
2023-04-07T22:38:01.883Z,101000.94
2023-04-07T22:40:29.111Z,101007.03
2023-04-07T22:42:56.222Z,101011.75
2023-04-07T22:45:23.318Z,100992.28
2023-04-07T22:47:50.556Z,101007.38
2023-04-07T22:50:17.628Z,101015.22
2023-04-07T22:52:44.759Z,101011.75
2023-04-07T22:55:11.800Z,101009.66
2023-04-07T22:57:39.885Z,101014.91
2023-04-07T23:00:09.876Z,101007.56
2023-04-07T23:02:37.879Z,101009.13
2023-04-07T23:05:10.492Z,101011.97
2023-04-07T23:07:37.947Z,101015.22
2023-04-07T23:10:05.829Z,101011.09
2023-04-07T23:12:32.989Z,101017.28
2023-04-07T23:15:00.159Z,101002.81
2023-04-07T23:17:27.576Z,101015.56
2023-04-07T23:19:54.636Z,101011.88
2023-04-07T23:22:22.143Z,101014.47
2023-04-07T23:24:49.350Z,101009.56
2023-04-07T23:27:16.650Z,101008.13
2023-04-07T23:29:43.787Z,101011.63
2023-04-07T23:32:11.496Z,101015.22
2023-04-07T23:34:38.636Z,101014.47
2023-04-07T23:37:05.838Z,101012.63
2023-04-07T23:39:34.224Z,101007.09
2023-04-07T23:42:02.233Z,101001.38
2023-04-07T23:44:29.422Z,101005.56
2023-04-07T23:46:56.546Z,101006.13
2023-04-07T23:49:23.615Z,101008.44
2023-04-07T23:51:51.454Z,101002.38
2023-04-07T23:54:18.821Z,101006.50
2023-04-07T23:56:46.056Z,101003.03
2023-04-07T23:59:13.355Z,101008.44
